Thomas Murray

Olheiro-Chefe - West Ham United
14 Out 2027
Quinta-feira
Processo

Personalidade

Adaptabilidade (4) Ambição (13) Controvérsia (16) Lealdade (6) Pressão (12) Profissionalismo (14) Espírito Esportivo (2) Temperamento (9)

Perfil

Estilo de Treinamento Democrático
Licença Continental Pro
Determinação 14
Gestão de Pessoas 8
Motivação 9
Disciplina 7
Satisfação no Trabalho
100%
Fadiga
0%
Função Olheiro-Chefe
Salário 111.6K p/s
Contrato 14.03.2030

Desempenho

Comportamento Bom
Eficácia do Treinamento
54%
Desenvolvimento do Jogador
70%
Prevenção de Lesões
40%
Implementação Tática
45%

Eventos Recentes

Participou de uma reunião de recrutamento agora
Participou de uma reunião de recrutamento agora
Recomendou um alvo de transferência agora
Recomendou um alvo de transferência agora
Recomendou um alvo de transferência 7d atrás
Recomendou um alvo de transferência 7d atrás
Recomendou um alvo de transferência 7d atrás
Recomendou um alvo de transferência 7d atrás

Monitorando agora

168
Jogador Clube Status Habilidade Confiança Observado Última observação Último voto
Jorrel Hato Chelsea Ativo 158 / 154 40% 3 30.08.2027 -
Harrison Armstrong Everton Ativo 126 / 134 40% 1 30.08.2027 -
Jamie Cumming Oxford United Ativo 127 / 134 72% 1 16.08.2027 Aprovar
Leonardo Mendicino Bari Ativo 113 / 129 40% 1 05.08.2027 -
Dayann Methalie Aston Villa Ativo 137 / 148 40% 1 05.08.2027 -
Davide Bartesaghi AC Milan Ativo 135 / 134 40% 2 04.08.2027 -
Lewis Miley Chelsea Ativo 150 / 159 40% 3 04.08.2027 -
Christ Inao Oulaï Fiorentina Ativo 133 / 141 40% 1 01.08.2027 -
Sascha Britschgi Padova Ativo 128 / 129 40% 1 01.08.2027 -
Freddy Murillo Valencia Ativo 118 / 125 40% 1 01.08.2027 -
Caleb Yirenkyi Coventry City Ativo 136 / 153 40% 3 31.07.2027 -
Johan Manzambi Newcastle United Ativo 141 / 149 40% 2 31.07.2027 -
Julián Bazán Philadelphia Union Ativo 115 / 122 40% 1 31.07.2027 -
Christos Mouzakitis Hull City Ativo 130 / 149 40% 2 29.07.2027 -
Martim Cunha Porto Ativo 112 / 113 40% 2 29.07.2027 -
Riley Owen Trento Ativo 105 / 119 40% 3 29.07.2027 -
Ernie Weaver AFC Wimbledon Ativo 118 / 120 40% 2 28.07.2027 -
Matías Gómez Granada Ativo 110 / 130 40% 2 28.07.2027 -
Jofre Torrents Ajax Ativo 126 / 128 40% 2 26.07.2027 -
Juan Giménez Celta Ativo 119 / 125 40% 1 26.07.2027 -
Rodrigo Gomes Wolverhampton Ativo 139 / 152 40% 12 22.07.2027 -
Juanlu Bournemouth Ativo 157 / 151 40% 6 22.07.2027 -
Yehor Yarmoliuk Brentford Ativo 159 / 161 40% 9 22.07.2027 -
Xavi Simons Tottenham Ativo 166 / 149 40% 9 05.07.2027 -
Yankuba Minteh Brighton Ativo 145 / 145 40% 8 05.07.2027 -
Jesús Rodríguez Como Ativo 146 / 152 40% 2 21.06.2027 -
Yeremy Pino Crystal Palace Ativo 150 / 144 40% 8 02.06.2027 -
Toby Collyer West Bromwich Albion Ativo 124 / 141 40% 2 02.06.2027 -
Scott Twine Bristol City Ativo 125 / 131 69% 1 02.06.2027 Aprovar
Callum Hudson-Odoi Nottingham Forest Ativo 158 / 142 40% 3 31.05.2027 -
Léo Scienza Southampton Ativo 146 / 141 40% 4 31.05.2027 -
Kenan Yıldız Juventus Ativo 165 / 168 40% 4 31.05.2027 -
Shea Charles Southampton Ativo 137 / 140 40% 6 29.05.2027 -
Malick Fofana Sunderland Ativo 150 / 137 40% 5 29.05.2027 -
Ilyas Ansah Hull City Ativo 135 / 134 40% 7 28.05.2027 -
Jacques Ekomié Wrexham Ativo 121 / 125 40% 3 27.05.2027 -
Adam Wharton Crystal Palace Ativo 160 / 144 40% 4 27.05.2027 -
Mohamed-Ali Cho Hull City Ativo 136 / 129 40% 6 26.05.2027 -
Assane Diao Lazio Ativo 152 / 154 40% 5 26.05.2027 -
Othmane Maamma Watford Ativo 120 / 121 40% 3 25.05.2027 -
Tom Fellows Southampton Ativo 139 / 134 40% 5 25.05.2027 -
Tommy Conway Middlesbrough Ativo 131 / 122 40% 6 24.05.2027 -
Maximo Ingravidi Colón Ativo 108 / 108 40% 1 24.05.2027 -
Markus Jensen Nacional Ativo 103 / 119 40% 1 24.05.2027 -
Borna Knezović Casarano Ativo 100 / 104 40% 1 24.05.2027 -
Gonçalo Oliveira Benfica Ativo 109 / 110 40% 2 22.05.2027 -
Matías Soulé AS Roma Ativo 158 / 163 40% 10 20.05.2027 -
Carlos Alcaraz Everton Ativo 142 / 143 40% 4 19.05.2027 -
Amad Manchester United Ativo 152 / 158 40% 6 18.05.2027 -
Francisco Conceição Juventus Ativo 152 / 161 40% 5 16.05.2027 -
Nicolas Verkooijen PSV Ativo 113 / 121 40% 2 15.05.2027 -
Francesco Pio Esposito Inter Ativo 146 / 146 40% 1 15.05.2027 -
Stefanos Tzimas Brighton Ativo 140 / 136 40% 1 15.05.2027 -
Jack McGlynn Stoke City Ativo 125 / 131 40% 3 11.05.2027 -
Antoni Milambo Brentford Ativo 136 / 152 40% 1 11.05.2027 -
Yannik Wagner Heidenheim Ativo 105 / 103 40% 2 10.05.2027 -
Ognjen Bondžulić Mladost Lucani Ativo 97 / 106 40% 1 10.05.2027 -
Tomáš Rigo Stoke City Ativo 136 / 127 40% 3 07.05.2027 -
Valentin Atangana Al-Ahli Ativo 138 / 141 40% 3 05.05.2027 -
Isaac Price West Bromwich Albion Ativo 120 / 132 40% 2 03.05.2027 -
Kevin Fulham Ativo 149 / 156 40% 4 02.05.2027 -
Morgan Rogers Chelsea Ativo 162 / 158 40% 15 01.05.2027 -
Darryl Bakola Padova Ativo 103 / 109 40% 3 27.04.2027 -
Hugo Ekitiké Liverpool Ativo 161 / 165 40% 2 23.04.2027 -
Miloš Kerkez Liverpool Ativo 153 / 159 40% 5 22.04.2027 -
Andre Brooks Sheffield United Ativo 120 / 122 40% 2 21.04.2027 -
Tiago Freitas Benfica Ativo 103 / 111 40% 2 21.04.2027 -
David Ozoh Derby County Ativo 118 / 120 40% 1 21.04.2027 -
Aaron Hickey Brentford Ativo 149 / 149 40% 1 20.04.2027 -
Agustín Ruberto River Plate Ativo 124 / 119 40% 1 20.04.2027 -
Thomas Waddingham Portsmouth Ativo 108 / 115 40% 1 20.04.2027 -
Dylan Lawlor Cardiff City Ativo 108 / 123 40% 1 14.04.2027 -
Joe Gelhardt Hull City Ativo 129 / 136 40% 2 13.04.2027 -
Mohamed Belloumi Hull City Ativo 137 / 134 40% 7 11.04.2027 -
Gonzalo Fulham Ativo 150 / 154 40% 6 09.04.2027 -
Josh King Chelsea Ativo 142 / 142 40% 2 08.04.2027 -
James Dornelly Peterborough United Ativo 95 / 98 40% 1 06.04.2027 -
Kwadwo Baah Watford Ativo 137 / 123 40% 1 04.04.2027 -
Jack Hinshelwood Brighton Ativo 149 / 138 40% 2 02.04.2027 -
Keagan Phiri Platinum Stars Ativo 105 / 95 40% 1 02.04.2027 -
Ryan Gravenberch Liverpool Ativo 166 / 154 40% 3 31.03.2027 -
Leo Castledine Middlesbrough Ativo 130 / 123 40% 2 24.03.2027 -
Bradley Barcola Liverpool Ativo 159 / 165 40% 11 22.03.2027 -
Kristoffer Lund Birmingham Ativo 120 / 128 40% 1 20.03.2027 -
Hlompho Lorch Ajax Cape Town Ativo 100 / 110 40% 2 18.03.2027 -
Matvey Kislyak CSKA Moscow Ativo 127 / 145 40% 1 18.03.2027 -
Tino Livramento Newcastle United Ativo 156 / 159 40% 3 15.03.2027 -
Abdul Fatawu Leicester City Ativo 131 / 129 40% 1 15.03.2027 -
Hélio Varela Maccabi Tel Aviv Ativo 131 / 127 40% 2 13.03.2027 -
Noah Sadiki Sunderland Ativo 137 / 140 40% 1 13.03.2027 -
Cemran Dansin Orlando Pirates Ativo 113 / 120 40% 2 12.03.2027 -
Ibrahim Maza Bayer Leverkusen Ativo 144 / 158 40% 1 11.03.2027 -
Curtis Jones Inter Ativo 161 / 160 40% 1 03.01.2027 -
Jan Paul van Hecke Tottenham Ativo 156 / 166 40% 1 03.01.2027 -
Quinten Timber Crystal Palace Ativo 155 / 156 40% 1 03.01.2027 -
Luiz Henrique West Ham United Negociando 142 / 143 68% 1 01.01.2027 -
Marcel Ruiz RC Lens Ativo 140 / 141 68% 1 01.01.2027 Aprovar
Borja Sainz Fiorentina Ativo 144 / 145 66% 1 01.01.2027 Aprovar
Dmytro Riznyk Cruz Azul Negociando 137 / 137 66% 1 01.01.2027 -
Mason Mount Manchester United Ativo 154 / 149 40% 4 31.12.2026 -
Brais Méndez Columbus Crew Ativo 152 / 152 40% 6 30.12.2026 -
Nicolas Jackson Aston Villa Ativo 146 / 153 40% 4 30.12.2026 -
Kiernan Dewsbury-Hall Everton Ativo 159 / 137 40% 4 29.12.2026 -
Carlos Vicente Birmingham Ativo 138 / 135 40% 9 28.12.2026 Observar
Josep Martínez Inter Ativo 143 / 147 40% 3 28.12.2026 -
David Raya Arsenal Ativo 154 / 161 40% 3 28.12.2026 -
Adrien Truffert Bournemouth Ativo 155 / 155 40% 3 27.12.2026 -
Hany Mukhtar Spezia Ativo 141 / 129 40% 5 27.12.2026 -
Cody Gakpo Liverpool Ativo 154 / 165 40% 11 26.12.2026 -
Gabriel Martinelli Brighton Ativo 166 / 160 40% 11 26.12.2026 -
Matt O'Riley Brighton Ativo 148 / 136 40% 4 26.12.2026 -
Harry Wilson Leeds United Ativo 148 / 137 40% 3 26.12.2026 -
Kai Havertz Arsenal Ativo 167 / 161 40% 8 23.12.2026 -
Steven Bergwijn Al-Ittihad Ativo 146 / 139 40% 4 22.12.2026 -
Jérémy Doku Manchester City Ativo 175 / 157 40% 6 22.12.2026 -
Martin Ødegaard Arsenal Ativo 186 / 183 40% 7 21.12.2026 -
Iliman N'Diaye Everton Ativo 157 / 146 40% 8 20.12.2026 -
Sandro Tonali Tottenham Ativo 180 / 174 40% 4 17.12.2026 -
Justin Bijlow Genoa Ativo 148 / 145 40% 1 17.12.2026 -
Senne Lammens Manchester United Ativo 142 / 146 40% 4 15.12.2026 -
Arijanet Murić Sassuolo Ativo 136 / 145 40% 2 15.12.2026 -
Nico González Newcastle United Ativo 162 / 170 40% 6 13.12.2026 -
Federico Chiesa Liverpool Ativo 149 / 147 40% 2 13.12.2026 -
Giacomo Raspadori Atalanta Ativo 150 / 142 40% 2 13.12.2026 -
Alexis Mac Allister Liverpool Ativo 155 / 160 40% 3 10.12.2026 -
Bryan Mbeumo Manchester United Ativo 165 / 163 40% 3 10.12.2026 -
Dušan Vlahović Juventus Ativo 167 / 160 40% 1 10.12.2026 -
Martín Zubimendi Arsenal Ativo 161 / 155 40% 1 04.12.2026 -
Gabriel Jesus Barcelona Ativo 155 / 154 40% 5 01.12.2026 -
Marcus Rashford Manchester United Ativo 166 / 149 40% 1 01.12.2026 -
Robin Roefs Sunderland Ativo 144 / 150 40% 4 30.11.2026 -
Dean Henderson Crystal Palace Ativo 150 / 155 40% 3 30.11.2026 -
Anatolii Trubin Juventus Ativo 153 / 150 40% 1 30.11.2026 -
Mohammed Kudus Tottenham Ativo 153 / 153 40% 4 28.11.2026 -
Thiago Brentford Ativo 140 / 153 40% 1 28.11.2026 -
Declan Rice Arsenal Ativo 181 / 187 40% 4 25.11.2026 -
Alexey Miranchuk St. Gallen Ativo 138 / 146 40% 3 24.11.2026 -
Antoine Semenyo Manchester City Ativo 159 / 157 40% 2 15.11.2026 -
Óscar Mingueza Crystal Palace Ativo 156 / 152 40% 1 11.11.2026 -
Matheus Cunha Manchester United Ativo 154 / 147 40% 3 09.11.2026 -
Razvan Balasa Crvena Zvezda Ativo 150 / 152 40% 2 09.11.2026 -
Victor Osimhen Manchester United Ativo 152 / 165 40% 3 07.11.2026 -
Leroy Sané Galatasaray Ativo 155 / 161 40% 2 07.11.2026 -
Vinícius Júnior Arsenal Ativo 171 / 167 40% 2 06.11.2026 -
Phil Foden Manchester City Ativo 182 / 176 40% 3 02.11.2026 -
Breel Embolo Atlanta United FC Ativo 129 / 135 40% 4 01.11.2026 -
Dominic Solanke Tottenham Ativo 143 / 146 40% 2 31.10.2026 -
Jadon Sancho Manchester United Ativo 142 / 142 40% 1 31.10.2026 -
Georginio Rutter Brighton Ativo 140 / 155 40% 1 29.10.2026 -
Cole Palmer Chelsea Ativo 181 / 172 40% 2 27.10.2026 -
Luis Suárez Chelsea Ativo 145 / 148 40% 3 23.10.2026 -
Predrag Rajković Racing Genk Ativo 141 / 141 40% 1 22.10.2026 -
Amine Adli Bournemouth Ativo 143 / 150 40% 1 19.10.2026 -
Reece James Chelsea Ativo 175 / 174 40% 4 16.10.2026 -
Ángel Correa River Plate Ativo 141 / 129 40% 3 15.10.2026 -
Ebere Eze Arsenal Ativo 149 / 161 40% 1 12.10.2026 -
Alexander Isak Liverpool Ativo 166 / 167 40% 5 10.10.2026 -
James Trafford Leeds United Ativo 146 / 145 40% 1 08.10.2026 -
Jean-Philippe Mateta Crystal Palace Ativo 145 / 149 40% 2 03.10.2026 -
Barış Alper Yılmaz Galatasaray Ativo 137 / 139 40% 1 03.10.2026 -
James Maddison Tottenham Ativo 160 / 159 40% 1 03.10.2026 -
Mauro Arambarri River Plate Ativo 155 / 167 40% 1 02.10.2026 -
Oussama Idrissi Pachuca Ativo 143 / 145 40% 1 02.10.2026 -
Orbelín Pineda Monterrey Ativo 139 / 138 40% 1 29.09.2026 -
Allan Saint-Maximin Charlotte Football Club Ativo 130 / 144 40% 2 21.09.2026 -
Sergio Reguilón Inter Miami CF Ativo 143 / 124 40% 1 17.09.2026 -
Bruno Guimarães Arsenal Ativo 174 / 160 40% 3 16.09.2026 -
João Pedro Chelsea Ativo 142 / 144 40% 1 09.09.2026 -